createdAt,value
2023-01-11T00:02:07.114Z,1.00
2023-01-11T00:04:33.919Z,1.20
2023-01-11T00:07:00.709Z,1.03
2023-01-11T00:09:27.560Z,1.10
2023-01-11T00:11:55.183Z,1.20
2023-01-11T00:14:22.116Z,1.30
2023-01-11T00:16:48.823Z,1.23
2023-01-11T00:19:15.486Z,1.33
2023-01-11T00:21:42.248Z,1.67
2023-01-11T00:24:09.067Z,1.37
2023-01-11T00:26:36.277Z,1.60
2023-01-11T00:29:03.000Z,1.43
2023-01-11T00:31:29.846Z,1.40
2023-01-11T00:33:57.299Z,1.47
2023-01-11T00:36:24.373Z,1.57
2023-01-11T00:38:55.824Z,1.33
2023-01-11T00:41:42.254Z,1.60
2023-01-11T00:44:29.094Z,1.43
2023-01-11T00:47:14.481Z,1.53
2023-01-11T00:49:41.926Z,1.43
2023-01-11T00:52:09.812Z,1.50
2023-01-11T00:54:37.859Z,1.50
2023-01-11T00:57:06.458Z,1.27
2023-01-11T00:59:37.274Z,2.00
2023-01-11T01:02:04.465Z,1.30
2023-01-11T01:04:31.433Z,1.30
2023-01-11T01:06:58.252Z,1.50
2023-01-11T01:09:25.307Z,1.57
2023-01-11T01:11:52.275Z,1.40
2023-01-11T01:14:31.398Z,1.40
2023-01-11T01:17:03.923Z,1.30
2023-01-11T01:19:31.449Z,1.30
2023-01-11T01:21:59.188Z,1.50
2023-01-11T01:24:28.777Z,1.10
2023-01-11T01:26:56.726Z,1.33
2023-01-11T01:29:24.173Z,1.20
2023-01-11T01:31:51.144Z,1.30
2023-01-11T01:34:17.960Z,1.20
2023-01-11T01:36:44.928Z,1.30
2023-01-11T01:39:12.756Z,1.47
2023-01-11T01:41:39.731Z,1.03
2023-01-11T01:44:44.956Z,1.27
2023-01-11T01:47:12.117Z,1.10
2023-01-11T01:49:39.529Z,1.10
2023-01-11T01:52:06.597Z,1.00
2023-01-11T01:54:36.247Z,1.00
2023-01-11T01:57:06.896Z,1.00
2023-01-11T01:59:34.219Z,0.90
2023-01-11T02:02:01.318Z,1.00
2023-01-11T02:04:31.785Z,0.90
2023-01-11T02:07:09.686Z,0.90
2023-01-11T02:09:49.115Z,1.00
2023-01-11T02:12:16.482Z,0.90
2023-01-11T02:14:43.741Z,0.70
2023-01-11T02:17:10.806Z,0.80
2023-01-11T02:19:43.393Z,0.97
2023-01-11T02:22:52.933Z,0.80
2023-01-11T02:25:44.186Z,0.90
2023-01-11T02:28:17.216Z,1.00
2023-01-11T02:31:35.356Z,0.70
2023-01-11T02:34:41.951Z,0.53
2023-01-11T02:37:28.716Z,0.90
2023-01-11T02:40:18.224Z,0.60
2023-01-11T02:43:39.326Z,0.50
2023-01-11T02:46:13.456Z,0.63
2023-01-11T02:48:58.494Z,0.60
2023-01-11T02:51:35.993Z,0.77
2023-01-11T02:54:06.333Z,0.70
2023-01-11T02:56:37.794Z,0.90
2023-01-11T02:59:05.802Z,0.60
2023-01-11T03:01:32.650Z,0.70
2023-01-11T03:03:59.676Z,0.63
2023-01-11T03:06:30.960Z,0.60
2023-01-11T03:09:00.772Z,0.50
2023-01-11T03:12:18.578Z,0.53
2023-01-11T03:15:04.136Z,0.50
2023-01-11T03:17:30.940Z,0.60
2023-01-11T03:20:07.616Z,0.53
2023-01-11T03:22:43.771Z,0.60
2023-01-11T03:25:21.287Z,0.50
2023-01-11T03:27:53.897Z,0.60
2023-01-11T03:30:23.641Z,0.40
2023-01-11T03:32:55.271Z,0.40
2023-01-11T03:35:40.381Z,0.67
2023-01-11T03:38:16.638Z,0.50
2023-01-11T03:40:47.495Z,0.60
2023-01-11T03:43:14.980Z,0.50
2023-01-11T03:46:01.075Z,0.60
2023-01-11T03:48:32.566Z,0.53
2023-01-11T03:51:00.241Z,0.30
2023-01-11T03:53:30.885Z,0.50
2023-01-11T03:55:59.166Z,0.40
2023-01-11T03:58:28.286Z,0.50
2023-01-11T04:00:59.500Z,0.47
2023-01-11T04:03:27.291Z,0.30
2023-01-11T04:05:58.782Z,0.47
2023-01-11T04:08:25.960Z,0.60
2023-01-11T04:10:52.874Z,0.53
2023-01-11T04:13:19.751Z,0.50
2023-01-11T04:15:46.501Z,0.40
2023-01-11T04:18:13.280Z,0.30
2023-01-11T04:20:40.686Z,0.50
2023-01-11T04:23:10.352Z,0.60
2023-01-11T04:25:37.636Z,0.40
2023-01-11T04:28:04.410Z,0.70
2023-01-11T04:30:31.203Z,0.40
2023-01-11T04:32:59.255Z,0.30
2023-01-11T04:35:27.046Z,0.50
2023-01-11T04:37:57.438Z,0.50
2023-01-11T04:40:25.278Z,0.53
2023-01-11T04:42:52.105Z,0.33
2023-01-11T04:45:19.090Z,0.57
2023-01-11T04:47:45.839Z,0.57
2023-01-11T04:50:12.923Z,0.60
2023-01-11T04:52:41.713Z,1.10
2023-01-11T04:55:09.290Z,0.50
2023-01-11T04:57:36.080Z,0.50
2023-01-11T05:00:05.104Z,0.30
2023-01-11T05:02:31.777Z,0.30
2023-01-11T05:04:58.589Z,0.43
2023-01-11T05:07:25.227Z,0.50
2023-01-11T05:09:52.014Z,0.30
2023-01-11T05:12:18.859Z,0.30
2023-01-11T05:14:45.679Z,0.40
2023-01-11T05:17:16.727Z,0.53
2023-01-11T05:19:43.690Z,0.53
2023-01-11T05:22:10.563Z,0.70
2023-01-11T05:24:37.294Z,0.50
2023-01-11T05:27:04.124Z,0.83
2023-01-11T05:29:30.901Z,0.80
2023-01-11T05:31:57.622Z,0.90
2023-01-11T05:34:24.387Z,1.00
2023-01-11T05:36:51.200Z,1.10
2023-01-11T05:39:17.987Z,0.90
2023-01-11T05:41:44.665Z,1.13
2023-01-11T05:44:31.494Z,1.00
2023-01-11T05:46:58.598Z,1.10
2023-01-11T05:49:25.515Z,1.40
2023-01-11T05:51:52.283Z,1.00
2023-01-11T05:54:21.696Z,1.37
2023-01-11T05:56:48.797Z,1.33
2023-01-11T05:59:15.843Z,1.50
2023-01-11T06:01:43.218Z,1.90
2023-01-11T06:04:10.226Z,2.17
2023-01-11T06:06:37.195Z,1.70
2023-01-11T06:09:04.199Z,1.90
2023-01-11T06:11:30.985Z,1.57
2023-01-11T06:13:57.897Z,1.23
2023-01-11T06:16:24.802Z,1.70
2023-01-11T06:18:53.478Z,2.10
2023-01-11T06:21:20.939Z,1.60
2023-01-11T06:23:50.844Z,2.13
2023-01-11T06:26:20.268Z,1.90
2023-01-11T06:28:47.706Z,2.40
2023-01-11T06:31:17.105Z,1.50
2023-01-11T06:33:44.896Z,1.90
2023-01-11T06:36:12.872Z,2.30
2023-01-11T06:38:39.898Z,2.30
2023-01-11T06:41:08.489Z,2.13
2023-01-11T06:43:37.232Z,3.47
2023-01-11T06:46:04.151Z,2.00
2023-01-11T06:48:30.812Z,3.57
2023-01-11T06:50:58.466Z,2.67
2023-01-11T06:53:28.434Z,2.23
2023-01-11T06:55:57.420Z,2.33
2023-01-11T06:58:25.303Z,3.00
2023-01-11T07:00:53.583Z,3.77
2023-01-11T07:03:21.122Z,3.23
2023-01-11T07:05:48.045Z,2.60
2023-01-11T07:08:15.179Z,2.90
2023-01-11T07:10:43.712Z,3.20
2023-01-11T07:13:16.337Z,2.60
2023-01-11T07:15:51.009Z,2.77
2023-01-11T07:18:19.377Z,2.63
2023-01-11T07:20:46.573Z,3.00
2023-01-11T07:23:13.904Z,3.03
2023-01-11T07:25:41.300Z,4.27
2023-01-11T07:28:09.008Z,2.30
2023-01-11T07:30:55.541Z,2.40
2023-01-11T07:33:23.474Z,2.13
2023-01-11T07:35:50.419Z,2.73
2023-01-11T07:38:17.293Z,2.70
2023-01-11T07:40:44.157Z,2.30
2023-01-11T07:43:14.621Z,2.17
2023-01-11T07:45:46.177Z,3.23
2023-01-11T07:48:15.174Z,2.83
2023-01-11T07:50:44.566Z,2.13
2023-01-11T07:53:12.938Z,2.23
2023-01-11T07:55:40.627Z,2.60
2023-01-11T07:58:08.969Z,2.50
2023-01-11T08:00:35.818Z,2.27
2023-01-11T08:03:03.335Z,2.13
2023-01-11T08:05:30.248Z,1.87
2023-01-11T08:07:57.077Z,2.57
2023-01-11T08:10:24.329Z,2.33
2023-01-11T08:13:12.050Z,2.00
2023-01-11T08:15:47.166Z,2.83
2023-01-11T08:18:14.365Z,2.40
2023-01-11T08:20:41.509Z,2.97
2023-01-11T08:23:09.973Z,2.97
2023-01-11T08:25:37.256Z,3.40
2023-01-11T08:28:06.110Z,2.40
2023-01-11T08:30:33.347Z,2.43
2023-01-11T08:33:07.415Z,3.10
2023-01-11T08:54:11.779Z,2.43
2023-01-11T08:56:38.984Z,3.03
2023-01-11T08:59:06.140Z,2.47
2023-01-11T09:01:33.667Z,2.90
2023-01-11T09:04:09.363Z,2.37
2023-01-11T09:06:42.564Z,2.90
2023-01-11T09:09:11.465Z,3.10
2023-01-11T09:11:56.888Z,3.60
2023-01-11T09:14:25.737Z,2.20
2023-01-11T09:16:53.620Z,3.57
2023-01-11T09:19:21.205Z,2.50
2023-01-11T09:21:48.390Z,2.67
2023-01-11T09:24:15.426Z,2.90
2023-01-11T09:26:43.584Z,3.20
2023-01-11T09:29:11.486Z,2.57
2023-01-11T09:31:38.622Z,2.23
2023-01-11T09:34:07.059Z,2.53
2023-01-11T09:36:36.162Z,2.33
2023-01-11T09:39:07.725Z,2.83
2023-01-11T09:41:54.289Z,2.73
2023-01-11T09:44:25.505Z,2.90
2023-01-11T09:46:56.708Z,2.13
2023-01-11T09:49:30.538Z,2.70
2023-01-11T09:52:09.704Z,3.00
2023-01-11T09:54:36.784Z,2.67
2023-01-11T09:57:26.740Z,3.10
2023-01-11T10:00:07.065Z,2.63
2023-01-11T10:02:59.255Z,2.93
2023-01-11T10:06:01.587Z,2.30
2023-01-11T10:18:30.648Z,2.97
2023-01-11T10:18:44.498Z,2.87
2023-01-11T10:21:13.419Z,3.00
2023-01-11T10:23:42.157Z,2.70
2023-01-11T10:26:23.520Z,2.83
2023-01-11T10:29:19.842Z,3.17
2023-01-11T10:33:02.173Z,2.47
2023-01-11T10:35:34.866Z,2.80
2023-01-11T10:38:31.264Z,3.10
2023-01-11T10:41:12.090Z,3.33
2023-01-11T10:43:43.439Z,3.20
2023-01-11T10:46:20.940Z,3.37
2023-01-11T10:48:48.137Z,3.53
2023-01-11T10:51:38.756Z,4.00
2023-01-11T10:54:20.547Z,2.83
2023-01-11T10:57:11.447Z,6.13
2023-01-11T10:59:38.390Z,3.23
2023-01-11T11:02:17.244Z,2.97
2023-01-11T11:04:59.247Z,3.57
2023-01-11T11:07:34.420Z,2.87
2023-01-11T11:10:51.505Z,2.90
2023-01-11T11:13:33.777Z,3.00
2023-01-11T11:16:22.786Z,3.13
2023-01-11T11:18:51.496Z,2.40
2023-01-11T11:21:24.315Z,2.87
2023-01-11T11:24:03.003Z,3.17
2023-01-11T11:26:38.465Z,2.40
2023-01-11T11:29:09.284Z,2.93
2023-01-11T11:31:42.741Z,3.27
2023-01-11T11:34:21.165Z,2.60
2023-01-11T11:36:50.389Z,3.30
2023-01-11T11:39:29.092Z,2.63
2023-01-11T11:41:57.984Z,3.30
2023-01-11T11:44:27.391Z,3.87
2023-01-11T11:47:05.659Z,3.23
2023-01-11T11:49:34.502Z,2.83
2023-01-11T11:52:02.986Z,3.23
2023-01-11T11:54:50.552Z,2.73
2023-01-11T11:57:39.620Z,3.70
2023-01-11T12:00:09.546Z,3.27
2023-01-11T12:02:38.875Z,3.17
2023-01-11T12:05:08.578Z,2.90
2023-01-11T12:07:54.383Z,2.60
2023-01-11T12:10:25.193Z,3.57
2023-01-11T12:12:59.923Z,2.80
2023-01-11T12:15:28.892Z,3.20
2023-01-11T12:17:56.858Z,3.30
2023-01-11T12:20:23.690Z,4.10
2023-01-11T12:22:53.782Z,3.27
2023-01-11T12:25:22.057Z,5.00
2023-01-11T12:28:07.451Z,3.63
2023-01-11T12:31:12.780Z,3.10
2023-01-11T12:34:06.893Z,3.30
2023-01-11T12:36:52.231Z,3.30
2023-01-11T12:39:35.060Z,3.03
2023-01-11T12:42:20.328Z,4.07
2023-01-11T12:44:53.258Z,3.83
2023-01-11T12:47:46.221Z,3.83
2023-01-11T12:50:20.687Z,3.27
2023-01-11T12:52:56.622Z,4.97
2023-01-11T12:55:26.139Z,3.20
2023-01-11T12:58:01.883Z,2.87
2023-01-11T13:00:43.562Z,3.70
2023-01-11T13:03:27.807Z,3.10
2023-01-11T13:06:16.063Z,3.23
2023-01-11T13:08:54.434Z,3.27
2023-01-11T13:11:56.887Z,3.80
2023-01-11T13:14:45.178Z,2.97
2023-01-11T13:17:22.418Z,2.70
2023-01-11T13:20:19.621Z,2.40
2023-01-11T13:22:50.433Z,2.57
2023-01-11T13:25:24.677Z,2.70
2023-01-11T13:27:53.232Z,2.90
2023-01-11T13:30:24.352Z,2.57
2023-01-11T13:33:03.486Z,2.57
2023-01-11T13:35:56.871Z,2.30
2023-01-11T13:38:35.643Z,2.27
2023-01-11T13:41:31.017Z,3.90
2023-01-11T13:44:10.171Z,2.50
2023-01-11T13:46:43.523Z,2.47
2023-01-11T13:49:28.552Z,2.40
2023-01-11T13:52:10.533Z,2.37
2023-01-11T13:55:14.395Z,1.90
2023-01-11T13:58:10.134Z,2.93
2023-01-11T14:00:51.943Z,2.60
2023-01-11T14:03:21.899Z,2.33
2023-01-11T14:05:54.902Z,2.77
2023-01-11T14:08:46.548Z,1.80
2023-01-11T14:11:29.358Z,2.53
2023-01-11T14:14:15.617Z,1.47
2023-01-11T14:16:57.109Z,2.40
2023-01-11T14:19:34.903Z,1.63
2023-01-11T14:22:26.319Z,1.80
2023-01-11T14:24:59.040Z,1.37
2023-01-11T14:27:48.714Z,1.73
2023-01-11T14:30:29.430Z,1.50
2023-01-11T14:33:16.217Z,1.33
2023-01-11T14:35:59.093Z,1.13
2023-01-11T14:38:54.946Z,2.27
2023-01-11T14:41:30.836Z,2.57
2023-01-11T14:44:16.204Z,2.00
2023-01-11T14:46:51.368Z,1.70
2023-01-11T14:49:18.375Z,2.17
2023-01-11T14:51:45.671Z,2.60
2023-01-11T14:54:13.979Z,2.43
2023-01-11T14:56:43.900Z,2.47
2023-01-11T14:59:25.889Z,1.80
2023-01-11T15:02:05.119Z,1.90
2023-01-11T15:04:58.507Z,1.57
2023-01-11T15:07:31.441Z,2.20
2023-01-11T15:10:00.276Z,2.03
2023-01-11T15:12:38.559Z,2.10
2023-01-11T15:15:06.299Z,2.07
2023-01-11T15:17:52.423Z,2.10
2023-01-11T15:20:23.383Z,1.97
2023-01-11T15:22:58.645Z,2.47
2023-01-11T15:25:31.750Z,1.73
2023-01-11T15:28:04.309Z,2.13
2023-01-11T15:30:31.743Z,2.47
2023-01-11T15:33:17.276Z,2.00
2023-01-11T15:35:56.466Z,1.90
2023-01-11T15:38:44.398Z,2.60
2023-01-11T15:41:36.347Z,2.00
2023-01-11T15:44:10.696Z,2.37
2023-01-11T15:47:05.673Z,2.63
2023-01-11T15:50:06.599Z,3.20
2023-01-11T15:52:36.291Z,1.67
2023-01-11T15:55:40.734Z,2.47
2023-01-11T15:58:19.874Z,2.43
2023-01-11T16:01:08.097Z,2.37
2023-01-11T16:04:00.303Z,2.40
2023-01-11T16:06:40.479Z,3.13
2023-01-11T16:09:48.760Z,1.90
2023-01-11T16:12:15.582Z,2.03
2023-01-11T16:15:01.452Z,2.50
2023-01-11T16:17:28.947Z,2.50
2023-01-11T16:19:57.163Z,1.93
2023-01-11T16:22:28.440Z,3.13
2023-01-11T16:25:01.382Z,2.50
2023-01-11T16:27:31.251Z,2.20
2023-01-11T16:29:58.409Z,2.17
2023-01-11T16:32:32.904Z,2.37
2023-01-11T16:35:15.745Z,2.30
2023-01-11T16:37:45.776Z,2.70
2023-01-11T16:40:22.147Z,2.40
2023-01-11T16:43:00.239Z,3.23
2023-01-11T16:45:42.052Z,2.20
2023-01-11T16:48:20.203Z,2.43
2023-01-11T16:50:58.128Z,2.20
2023-01-11T16:53:26.433Z,2.10
2023-01-11T16:55:56.598Z,2.20
2023-01-11T16:58:35.354Z,2.30
2023-01-11T17:01:08.369Z,2.30
2023-01-11T17:03:38.501Z,2.40
2023-01-11T17:06:08.419Z,2.40
2023-01-11T17:08:40.766Z,2.30
2023-01-11T17:11:07.785Z,2.30
2023-01-11T17:13:58.235Z,2.80
2023-01-11T17:16:28.571Z,1.97
2023-01-11T17:18:55.987Z,2.63
2023-01-11T17:21:25.729Z,2.83
2023-01-11T17:23:55.533Z,2.40
2023-01-11T17:26:25.033Z,2.40
2023-01-11T17:28:58.665Z,2.03
2023-01-11T17:31:28.643Z,2.23
2023-01-11T17:34:10.510Z,2.53
2023-01-11T17:36:37.540Z,2.13
2023-01-11T17:39:05.785Z,2.10
2023-01-11T17:41:51.112Z,3.63
2023-01-11T17:44:40.530Z,2.47
2023-01-11T17:47:11.350Z,2.90
2023-01-11T17:49:39.208Z,2.63
2023-01-11T17:52:23.267Z,1.77
2023-01-11T17:55:14.582Z,2.83
2023-01-11T17:57:41.553Z,2.47
2023-01-11T18:00:26.731Z,1.97
2023-01-11T18:02:54.076Z,1.80
2023-01-11T18:05:25.484Z,2.03
2023-01-11T18:07:58.262Z,2.50
2023-01-11T18:10:28.003Z,2.33
2023-01-11T18:12:56.634Z,2.33
2023-01-11T18:15:35.096Z,2.40
2023-01-11T18:18:02.330Z,2.70
2023-01-11T18:20:37.277Z,3.07
2023-01-11T18:23:22.808Z,2.97
2023-01-11T18:25:50.126Z,1.90
2023-01-11T18:28:26.362Z,2.67
2023-01-11T18:30:54.469Z,2.20
2023-01-11T18:33:23.468Z,2.50
2023-01-11T18:36:01.820Z,2.13
2023-01-11T18:38:32.163Z,2.13
2023-01-11T18:41:22.459Z,2.23
2023-01-11T18:43:49.231Z,2.43
2023-01-11T18:46:19.169Z,2.47
2023-01-11T18:48:46.448Z,2.20
2023-01-11T18:51:18.614Z,2.57
2023-01-11T18:53:48.012Z,2.20
2023-01-11T18:56:16.464Z,2.00
2023-01-11T18:58:43.520Z,3.10
2023-01-11T19:01:10.788Z,2.77
2023-01-11T19:03:38.115Z,2.47
2023-01-11T19:06:05.992Z,2.40
2023-01-11T19:08:32.865Z,2.00
2023-01-11T19:10:59.725Z,2.37
2023-01-11T19:13:26.497Z,2.67
2023-01-11T19:15:53.317Z,2.17
2023-01-11T19:18:20.180Z,2.23
2023-01-11T19:20:46.944Z,2.57
2023-01-11T19:23:13.687Z,2.00
2023-01-11T19:25:41.582Z,2.60
2023-01-11T19:28:08.486Z,2.40
2023-01-11T19:30:38.816Z,2.43
2023-01-11T19:33:05.589Z,1.40
2023-01-11T19:35:32.393Z,2.43
2023-01-11T19:37:59.195Z,2.07
2023-01-11T19:40:26.198Z,2.40
2023-01-11T19:42:52.998Z,2.13
2023-01-11T19:45:21.099Z,2.10
2023-01-11T19:47:47.874Z,2.23
2023-01-11T19:50:17.104Z,2.13
2023-01-11T19:52:45.127Z,2.10
2023-01-11T19:55:11.824Z,2.67
2023-01-11T19:57:40.485Z,2.17
2023-01-11T20:00:08.878Z,3.13
2023-01-11T20:02:47.190Z,2.40
2023-01-11T20:05:14.346Z,2.30
2023-01-11T20:07:41.495Z,2.70
2023-01-11T20:10:10.089Z,1.83
2023-01-11T20:12:36.939Z,2.87
2023-01-11T20:15:04.718Z,2.10
2023-01-11T20:17:33.495Z,2.87
2023-01-11T20:20:00.462Z,2.20
2023-01-11T20:22:27.377Z,2.10
2023-01-11T20:24:56.019Z,2.17
2023-01-11T20:27:22.870Z,2.40
2023-01-11T20:29:49.699Z,3.50
2023-01-11T20:32:39.248Z,2.97
2023-01-11T20:35:04.941Z,2.07
2023-01-11T20:37:31.736Z,2.03
2023-01-11T20:39:58.629Z,1.80
2023-01-11T20:42:25.473Z,2.30
2023-01-11T20:44:52.639Z,2.57
2023-01-11T20:47:19.823Z,2.50
2023-01-11T20:49:46.764Z,1.63
2023-01-11T20:52:14.376Z,2.10
2023-01-11T20:54:41.200Z,2.13
2023-01-11T20:57:12.314Z,1.90
2023-01-11T20:59:39.453Z,2.90
2023-01-11T21:02:07.763Z,2.07
2023-01-11T21:04:40.739Z,1.83
2023-01-11T21:07:07.490Z,1.93
2023-01-11T21:09:34.298Z,2.47
2023-01-11T21:12:04.915Z,1.93
2023-01-11T21:14:31.733Z,1.73
2023-01-11T21:16:58.927Z,1.67
2023-01-11T21:19:26.599Z,2.20
2023-01-11T21:21:53.367Z,2.30
2023-01-11T21:24:21.108Z,2.20
2023-01-11T21:26:48.344Z,2.03
2023-01-11T21:29:15.209Z,1.83
2023-01-11T21:31:42.306Z,2.90
2023-01-11T21:34:11.587Z,2.23
2023-01-11T21:36:39.184Z,1.97
2023-01-11T21:39:07.259Z,2.20
2023-01-11T21:41:52.619Z,2.53
2023-01-11T21:44:20.472Z,2.57
2023-01-11T21:46:47.474Z,2.57
2023-01-11T21:49:15.173Z,2.00
2023-01-11T21:51:42.890Z,2.27
2023-01-11T21:54:15.196Z,2.30
2023-01-11T21:56:42.114Z,2.10
2023-01-11T21:59:09.396Z,1.90
2023-01-11T22:01:37.544Z,2.63
2023-01-11T22:04:08.283Z,1.70
2023-01-11T22:06:36.835Z,1.90
2023-01-11T22:09:05.090Z,2.40
2023-01-11T22:11:34.810Z,2.17
2023-01-11T22:14:02.884Z,1.90
2023-01-11T22:16:31.109Z,2.73
2023-01-11T22:18:59.677Z,2.97
2023-01-11T22:21:26.829Z,1.90
2023-01-11T22:23:56.083Z,2.63
2023-01-11T22:26:23.268Z,2.70
2023-01-11T22:29:12.055Z,2.30
2023-01-11T22:31:40.893Z,2.53
2023-01-11T22:34:08.240Z,2.80
2023-01-11T22:36:35.167Z,1.97
2023-01-11T22:39:01.962Z,3.03
2023-01-11T22:41:28.884Z,2.07
2023-01-11T22:43:55.658Z,2.53
2023-01-11T22:46:25.623Z,2.50
2023-01-11T22:48:53.272Z,2.03
2023-01-11T22:51:24.460Z,2.73
2023-01-11T22:53:52.823Z,2.10
2023-01-11T22:56:26.174Z,2.07
2023-01-11T22:58:53.935Z,2.20
2023-01-11T23:01:25.470Z,1.93
2023-01-11T23:03:53.484Z,1.77
2023-01-11T23:06:23.664Z,2.50
2023-01-11T23:08:50.700Z,2.27
2023-01-11T23:11:38.025Z,2.20
2023-01-11T23:14:07.400Z,1.93
2023-01-11T23:16:35.144Z,2.47
2023-01-11T23:19:06.721Z,1.90
2023-01-11T23:21:33.567Z,2.03
2023-01-11T23:24:04.016Z,2.50
2023-01-11T23:26:31.193Z,2.40
2023-01-11T23:28:57.992Z,2.50
2023-01-11T23:31:26.222Z,2.40
2023-01-11T23:33:55.205Z,2.40
2023-01-11T23:36:23.212Z,2.10
2023-01-11T23:38:51.054Z,2.30
2023-01-11T23:41:38.054Z,2.73
2023-01-11T23:44:07.224Z,2.13
2023-01-11T23:46:52.911Z,2.23
2023-01-11T23:49:19.738Z,2.37
2023-01-11T23:51:46.690Z,2.07
2023-01-11T23:54:13.791Z,2.13
2023-01-11T23:56:40.976Z,3.50
2023-01-11T23:59:07.956Z,2.23
